• Join FlightAware (Why Join?)
  • Login
  • US Flag 
01:57AM EDT


 

Airport Tracker/Info


-or-


 

Live Flight TrackerFlight Track Log ✈ FLG3432 ✈ 23-Jun-2013 ✈ KSLC - KDFW

Flight Track Log - Related Links

Times and Time Zones

All times are in EDT time to prevent confusion due to time zone crossing. See the FLG3432 flight status page for this flight to view local times or setup timezone preferences in your user account.

Time Position Orientation Groundspeed Altitude Reporting Facility
EDT Latitude Longitude Course Direction KTS MPH feet Rate Location/Type
07:48PM 40.8086 -111.9786 163° South 182 209 4,800  Level Salt Lake Center
07:48PM 40.8414 -111.9817 356° North 188 216 5,800 1,380 Climbing Salt Lake Center
07:49PM 40.9208 -111.9914 355° North 250 288 7,400 1,620 Climbing Salt Lake Center
07:50PM 41.1128 -111.9475 48° Northeast  Level FlightAware Approximate
07:50PM 40.9983 -112.0019 354° North 277 319 9,400  Level Salt Lake Center
07:51PM 41.1260 -111.8040 108° East  Level FlightAware Approximate
07:52PM 41.0338 -111.7295 163° South  Level FlightAware Approximate
07:52PM 41.0597 -111.9528 31° Northeast 297 342 11,500  Level Salt Lake Center
07:53PM 40.9220 -111.6834 163° South  Level FlightAware Approximate
07:53PM 41.0131 -111.8617 124° Southeast 287 330 13,200  Level Salt Lake Center
07:54PM 40.9397 -111.7944 145° Southeast 328 377 14,800 1,860 Climbing Salt Lake Center
07:55PM 40.8464 -111.7092 145° Southeast 340 391 17,100 2,100 Climbing Salt Lake Center
07:56PM 40.7669 -111.6339 144° Southeast 352 405 19,100 1,680 Climbing Salt Lake Center
07:57PM 40.7233 -111.5089 115° Southeast 379 436 20,600 1,500 Climbing Salt Lake Center
07:58PM 40.6842 -111.3744 111° Southeast 393 452 22,200 1,560 Climbing Salt Lake Center
07:59PM 40.6442 -111.2383 111° Southeast 398 458 23,800 1,380 Climbing Salt Lake Center
08:00PM 40.6036 -111.0978 111° Southeast 406 467 25,100 1,200 Climbing Salt Lake Center
08:01PM 40.5608 -110.9531 111° Southeast 423 487 26,300 1,200 Climbing Salt Lake Center
08:02PM 40.5092 -110.7772 111° Southeast 433 498 27,700 1,020 Climbing Salt Lake Center
08:03PM 40.4650 -110.6275 111° Southeast 439 505 28,500 840 Climbing Salt Lake Center
08:04PM 40.4192 -110.4783 112° Southeast 450 518 29,500 1,020 Climbing Salt Lake Center
08:05PM 40.3194 -110.3481 135° Southeast 454 522 30,700 840 Climbing Salt Lake Center
08:06PM 40.2336 -110.2356 135° Southeast 455 524 31,300 780 Climbing Salt Lake Center
08:07PM 40.1325 -110.1008 134° Southeast 464 534 32,400 1,140 Climbing Salt Lake Center
08:08PM 40.0644 -109.9692 124° Southeast 461 531 33,700 960 Climbing Salt Lake Center
08:09PM 39.9972 -109.8397 124° Southeast 454 522 34,500 840 Climbing Salt Lake Center
08:10PM 39.9183 -109.6914 125° Southeast 449 517 35,500 780 Climbing Salt Lake Center
08:11PM 39.8497 -109.5644 125° Southeast 448 516 36,200 660 Climbing Salt Lake Center
08:12PM 39.7717 -109.4175 125° Southeast 445 512 36,900 360 Climbing Salt Lake Center
08:13PM 39.7033 -109.2914 125° Southeast 446 513 37,000  Climbing Salt Lake Center
08:14PM 39.6219 -109.1403 125° Southeast 455 524 37,000  Level Salt Lake Center
08:15PM 39.5506 -109.0097 125° Southeast 466 536 37,000  Level Salt Lake Center
08:17PM 39.4542 -108.8317 125° Southeast 478 550 37,000  Level Denver Center
08:18PM 39.3703 -108.6758 125° Southeast 479 551 37,000  Level Denver Center
08:19PM 39.2978 -108.5425 125° Southeast 476 548 37,000  Level Denver Center
08:20PM 39.2114 -108.3856 125° Southeast 482 555 37,000  Level Denver Center
08:21PM 39.1369 -108.2494 125° Southeast 485 558 37,000  Level Denver Center
08:22PM 39.0617 -108.1158 126° Southeast 483 556 37,000  Level Denver Center
08:23PM 38.9736 -107.9600 126° Southeast 483 556 37,000  Level Denver Center
08:24PM 38.8983 -107.8247 126° Southeast 487 560 37,000  Level Denver Center
08:25PM 38.8122 -107.6708 126° Southeast 477 549 37,000  Level Denver Center
08:26PM 38.7367 -107.5417 127° Southeast 474 545 37,000  Level Denver Center
08:27PM 38.6500 -107.3856 125° Southeast 480 552 37,000  Level Denver Center
08:28PM 38.5753 -107.2567 127° Southeast 474 545 37,000  Level Denver Center
08:29PM 38.4953 -107.1172 126° Southeast 474 545 37,000  Level Denver Center
08:30PM 38.4181 -106.9822 126° Southeast 472 543 37,000  Level Denver Center
08:31PM 38.3411 -106.8442 125° Southeast 474 545 37,000  Level Denver Center
08:32PM 38.2686 -106.7122 125° Southeast 476 548 37,000  Level Denver Center
08:33PM 38.1819 -106.5619 126° Southeast 472 543 37,000  Level Denver Center
08:34PM 38.0783 -106.3767 125° Southeast 477 549 37,000  Level Denver Center
08:35PM 38.0119 -106.2561 125° Southeast 472 543 37,000  Level Denver Center
08:36PM 37.9361 -106.1267 127° Southeast 476 548 37,000  Level Denver Center
08:37PM 37.8503 -105.9753 126° Southeast 475 547 37,000  Level Denver Center
08:38PM 37.7608 -105.8231 127° Southeast 482 555 37,000  Level Denver Center
08:39PM 37.6847 -105.6922 126° Southeast 483 556 37,000  Level Denver Center
08:40PM 37.5969 -105.5394 126° Southeast 482 555 37,000  Level Denver Center
08:42PM 37.5156 -105.3961 126° Southeast 481 554 37,000  Level Denver Center
08:43PM 37.4381 -105.2658 127° Southeast 484 557 37,000  Level Denver Center
08:44PM 37.3553 -105.1239 126° Southeast 490 564 37,000  Level Denver Center
08:45PM 37.2775 -104.9925 127° Southeast 490 564 37,000  Level Denver Center
08:46PM 37.1872 -104.8383 126° Southeast 493 567 37,000  Level Denver Center
08:47PM 37.1067 -104.7056 127° Southeast 498 573 37,000  Level Denver Center
08:48PM 37.0153 -104.5517 127° Southeast 497 572 37,000  Level Denver Center
08:49PM 36.9106 -104.3769 127° Southeast 495 570 37,000  Level Denver Center
08:50PM 36.8586 -104.2897 127° Southeast 493 567 37,000  Level Albuquerque Center
08:51PM 36.7658 -104.1392 128° Southeast 492 566 37,000  Level Albuquerque Center
08:52PM 36.6875 -104.0100 127° Southeast 490 564 37,000  Level Albuquerque Center
08:53PM 36.5853 -103.8678 132° Southeast 494 568 37,000  Level Albuquerque Center
08:54PM 36.4914 -103.7422 133° Southeast 491 565 37,000  Level Albuquerque Center
08:55PM 36.3981 -103.6156 132° Southeast 492 566 37,000  Level Albuquerque Center
08:56PM 36.3031 -103.4900 133° Southeast 493 567 37,000  Level Albuquerque Center
08:57PM 36.2078 -103.3653 133° Southeast 493 567 37,000  Level Albuquerque Center
08:58PM 36.1333 -103.2183 122° Southeast 501 577 37,000  Level Albuquerque Center
08:59PM 36.0647 -103.0644 119° Southeast 506 582 37,000  Level Albuquerque Center
09:00PM 35.9919 -102.9042 119° Southeast 505 581 37,000  Level Albuquerque Center
09:01PM 35.9236 -102.7519 119° Southeast 507 583 37,000  Level Albuquerque Center
09:02PM 35.8447 -102.6114 125° Southeast 500 575 37,000  Level Albuquerque Center
09:03PM 35.7494 -102.4847 133° Southeast 502 578 37,000  Level Albuquerque Center
09:04PM 35.6511 -102.3642 135° Southeast 501 577 37,000  Level Albuquerque Center
09:05PM 35.5236 -102.2336 140° Southeast 499 574 37,000  Level Albuquerque Center
09:06PM 35.4136 -102.1336 143° Southeast 496 571 37,000  Level Albuquerque Center
09:07PM 35.3047 -102.0333 143° Southeast 494 568 37,000  Level Albuquerque Center
09:08PM 35.1903 -101.9300 144° Southeast 494 568 37,000  Level Albuquerque Center
09:09PM 35.0717 -101.8414 149° Southeast 492 566 37,000  Level Albuquerque Center
09:10PM 34.9642 -101.7106 135° Southeast 508 585 37,000  Level Albuquerque Center
09:11PM 34.9031 -101.5597 116° Southeast 505 581 37,000  Level Albuquerque Center
09:12PM 34.8419 -101.4067 116° Southeast 508 585 37,000  Level Albuquerque Center
09:13PM 34.7808 -101.2522 116° Southeast 509 586 37,000  Level Albuquerque Center
09:14PM 34.7217 -101.0947 115° Southeast 511 588 37,000  Level Albuquerque Center
09:15PM 34.6667 -100.9353 113° Southeast 513 590 37,000  Level Albuquerque Center
09:16PM 34.6114 -100.7767 113° Southeast 512 589 37,000  Level Albuquerque Center
09:17PM 34.5467 -100.5869 112° Southeast 510 587 37,000  Level Albuquerque Center
09:18PM 34.4908 -100.4325 114° Southeast 506 582 37,000 -180 Level Albuquerque Center
09:19PM 34.4356 -100.2772 113° Southeast 503 579 36,700 -660 Descending Albuquerque Center
09:20PM 34.3794 -100.1194 113° Southeast 508 585 35,700 -900 Descending Albuquerque Center
09:21PM 34.3486 -100.0194 110° East 504 580 35,100 -1,020 Descending Fort Worth Center
09:22PM 34.2853 -99.8517 115° Southeast 504 580 34,000 -1,080 Descending Fort Worth Center
09:23PM 34.2297 -99.6944 113° Southeast 504 580 33,000 -540 Descending Fort Worth Center
09:24PM 34.1742 -99.5372 113° Southeast 504 580 33,000  Level Fort Worth Center
09:25PM 34.1142 -99.3778 114° Southeast 510 587 33,000 -840 Level Fort Worth Center
09:26PM 34.0558 -99.2183 114° Southeast 510 587 31,400 -1,800 Descending Fort Worth Center
09:27PM 34.0017 -99.0644 113° Southeast 505 581 29,400 -1,800 Descending Fort Worth Center
09:28PM 33.9472 -98.9183 114° Southeast 493 567 27,800 -1,500 Descending Fort Worth Center
09:29PM 33.8989 -98.7772 112° Southeast 474 545 26,400 -1,500 Descending Fort Worth Center
09:30PM 33.8397 -98.6414 118° Southeast 457 526 24,800 -1,200 Descending Fort Worth Center
09:31PM 33.7803 -98.5081 118° Southeast 445 512 24,000 -1,080 Descending Fort Worth Center
09:32PM 33.7086 -98.3547 119° Southeast 466 536 22,700 -1,920 Descending Fort Worth Center
09:33PM 33.6489 -98.2219 118° Southeast 466 536 20,200 -2,520 Descending Fort Worth Center
09:34PM 33.5914 -98.0942 118° Southeast 456 525 17,700 -2,580 Descending Fort Worth Center
09:35PM 33.5333 -97.9717 120° Southeast 430 495 15,100 -2,460 Descending Fort Worth Center
09:36PM 33.4881 -97.8667 117° Southeast 407 468 12,800 -2,040 Descending Fort Worth Center
09:37PM 33.4300 -97.7444 120° Southeast 386 444 11,100 -1,200 Descending Fort Worth Center
09:38PM 33.3906 -97.6622 120° Southeast 338 389 10,500 -1,140 Descending Fort Worth Center
09:39PM 33.3500 -97.5833 122° Southeast 287 330 9,000 -1,680 Descending Dallas / Fort Worth TRACON
09:40PM 33.3167 -97.5000 116° Southeast 277 319 7,400 -1,560 Descending Dallas / Fort Worth TRACON
09:41PM 33.2833 -97.4167 116° Southeast 272 313 5,900 -1,200 Descending Dallas / Fort Worth TRACON
09:42PM 33.2667 -97.3333 103° East 257 296 5,100 -420 Descending Dallas / Fort Worth TRACON
09:43PM 33.2333 -97.2500 116° Southeast 258 297 5,100  Level Dallas / Fort Worth TRACON
09:44PM 33.1833 -97.2000 140° Southeast 246 283 5,100 -240 Level Dallas / Fort Worth TRACON
09:45PM 33.1167 -97.1333 140° Southeast 250 288 4,600 -1,020 Descending Dallas / Fort Worth TRACON
09:46PM 33.0667 -97.0833 140° Southeast 239 275 3,100 -1,560 Descending Dallas / Fort Worth TRACON